createdAt,value
2023-01-09T00:00:54.418Z,96.58
2023-01-09T00:01:59.009Z,96.72
2023-01-09T00:03:05.784Z,96.58
2023-01-09T00:04:13.770Z,96.59
2023-01-09T00:05:20.140Z,96.56
2023-01-09T00:06:24.514Z,96.57
2023-01-09T00:07:28.243Z,96.59
2023-01-09T00:08:35.598Z,96.33
2023-01-09T00:09:46.409Z,96.10
2023-01-09T00:10:50.972Z,96.12
2023-01-09T00:12:00.441Z,96.33
2023-01-09T00:13:04.310Z,96.10
2023-01-09T00:14:13.831Z,95.96
2023-01-09T00:15:18.370Z,96.16
2023-01-09T00:16:26.500Z,96.22
2023-01-09T00:17:30.756Z,96.37
2023-01-09T00:18:35.972Z,96.28
2023-01-09T00:19:40.117Z,96.56
2023-01-09T00:20:44.262Z,96.52
2023-01-09T00:21:48.613Z,96.23
2023-01-09T00:22:52.337Z,96.27
2023-01-09T00:24:01.465Z,96.31
2023-01-09T00:25:10.413Z,96.02
2023-01-09T00:26:24.586Z,96.31
2023-01-09T00:27:36.390Z,96.53
2023-01-09T00:28:41.052Z,96.36
2023-01-09T00:29:47.818Z,96.43
2023-01-09T00:31:01.412Z,96.60
2023-01-09T00:32:10.187Z,96.62
2023-01-09T00:33:21.507Z,96.54
2023-01-09T00:34:26.355Z,96.86
2023-01-09T00:35:30.916Z,96.55
2023-01-09T00:36:35.459Z,96.94
2023-01-09T00:37:39.198Z,97.02
2023-01-09T00:38:43.115Z,96.62
2023-01-09T00:39:48.191Z,96.61
2023-01-09T00:40:52.742Z,96.91
2023-01-09T00:41:59.255Z,96.68
2023-01-09T00:43:03.051Z,96.93
2023-01-09T00:44:26.323Z,97.00
2023-01-09T00:45:31.277Z,96.89
2023-01-09T00:46:40.331Z,96.96
2023-01-09T00:47:52.797Z,97.16
2023-01-09T00:49:20.145Z,96.87
2023-01-09T00:50:32.265Z,96.93
2023-01-09T00:51:37.229Z,97.07
2023-01-09T00:52:42.292Z,96.87
2023-01-09T00:53:49.157Z,97.16
2023-01-09T00:54:56.018Z,97.20
2023-01-09T00:56:08.249Z,97.13
2023-01-09T00:57:14.779Z,97.30
2023-01-09T00:58:19.939Z,96.94
2023-01-09T00:59:24.310Z,96.93
2023-01-09T01:00:28.016Z,96.95
2023-01-09T01:01:32.450Z,96.83
2023-01-09T01:02:40.763Z,96.88
2023-01-09T01:03:56.965Z,96.89
2023-01-09T01:05:19.395Z,97.20
2023-01-09T01:06:45.362Z,96.93
2023-01-09T01:08:03.868Z,97.00
2023-01-09T01:09:12.511Z,97.29
2023-01-09T01:10:24.190Z,97.05
2023-01-09T01:11:43.855Z,97.15
2023-01-09T01:12:57.889Z,97.37
2023-01-09T01:14:02.040Z,97.74
2023-01-09T01:15:09.139Z,97.85
2023-01-09T01:16:14.675Z,97.72
2023-01-09T01:17:23.514Z,97.67
2023-01-09T01:18:42.672Z,97.75
2023-01-09T01:20:06.386Z,97.54
2023-01-09T01:21:17.888Z,97.40
2023-01-09T01:22:47.872Z,97.25
2023-01-09T01:24:00.853Z,97.42
2023-01-09T01:25:17.850Z,97.28
2023-01-09T01:26:21.476Z,97.33
2023-01-09T01:27:25.288Z,97.72
2023-01-09T01:28:29.674Z,97.54
2023-01-09T01:29:33.435Z,97.54
2023-01-09T01:30:42.285Z,97.89
2023-01-09T01:31:46.082Z,97.57
2023-01-09T01:32:49.725Z,97.53
2023-01-09T01:33:53.517Z,97.35
2023-01-09T01:34:57.410Z,97.34
2023-01-09T01:36:10.480Z,97.37
2023-01-09T01:37:16.301Z,97.73
2023-01-09T01:38:31.819Z,97.79
2023-01-09T01:39:35.582Z,97.79
2023-01-09T01:40:55.215Z,97.92
2023-01-09T01:41:59.682Z,97.85
2023-01-09T01:43:13.918Z,97.81
2023-01-09T01:45:16.392Z,97.58
2023-01-09T01:46:21.320Z,97.69
2023-01-09T01:48:09.162Z,97.84
2023-01-09T01:49:20.713Z,97.70
2023-01-09T01:50:54.166Z,97.52
2023-01-09T01:52:02.259Z,97.91
2023-01-09T01:53:43.583Z,98.50
2023-01-09T01:54:49.830Z,98.45
2023-01-09T01:56:35.676Z,98.00
2023-01-09T01:57:58.299Z,98.26
2023-01-09T01:59:15.053Z,98.28
2023-01-09T02:00:27.441Z,98.11
2023-01-09T02:01:34.172Z,98.10
2023-01-09T02:02:43.805Z,98.06
2023-01-09T02:03:49.044Z,98.15
2023-01-09T02:04:56.345Z,98.00
2023-01-09T02:06:00.752Z,97.96
2023-01-09T02:07:10.551Z,98.03
2023-01-09T02:08:14.582Z,97.94
2023-01-09T02:09:22.926Z,97.61
2023-01-09T02:10:30.524Z,97.69
2023-01-09T02:11:34.717Z,97.79
2023-01-09T02:12:38.713Z,97.63
2023-01-09T02:13:43.212Z,97.79
2023-01-09T02:14:49.301Z,97.94
2023-01-09T02:16:14.658Z,98.07
2023-01-09T02:18:03.300Z,98.04
2023-01-09T02:20:13.973Z,98.47
2023-01-09T02:21:48.990Z,98.44
2023-01-09T02:23:29.509Z,98.49
2023-01-09T02:25:22.969Z,98.59
2023-01-09T02:27:20.760Z,98.26
2023-01-09T02:29:17.938Z,98.38
2023-01-09T02:30:40.277Z,98.09
2023-01-09T02:32:18.290Z,98.11
2023-01-09T02:33:57.436Z,98.24
2023-01-09T02:35:29.629Z,97.98
2023-01-09T02:37:01.927Z,97.99
2023-01-09T02:39:03.473Z,97.95
2023-01-09T02:40:18.371Z,97.98
2023-01-09T02:41:41.269Z,97.94
2023-01-09T02:42:47.709Z,98.24
2023-01-09T02:44:12.287Z,98.53
2023-01-09T02:45:16.576Z,98.32
2023-01-09T02:46:23.248Z,98.31
2023-01-09T02:47:30.265Z,98.41
2023-01-09T02:48:34.302Z,98.21
2023-01-09T02:49:40.308Z,98.58
2023-01-09T02:51:35.626Z,98.17
2023-01-09T02:53:01.369Z,98.24
2023-01-09T02:54:44.922Z,98.36
2023-01-09T02:56:30.255Z,98.25
2023-01-09T02:58:17.505Z,98.30
2023-01-09T03:00:23.727Z,98.47
2023-01-09T03:01:52.650Z,98.15
2023-01-09T03:03:23.043Z,98.66
2023-01-09T03:04:58.381Z,99.21
2023-01-09T03:06:36.906Z,99.04
2023-01-09T03:08:03.624Z,99.09
2023-01-09T03:09:25.328Z,99.13
2023-01-09T03:11:01.405Z,98.90
2023-01-09T03:12:15.176Z,98.66
2023-01-09T03:13:24.802Z,98.91
2023-01-09T03:14:34.103Z,98.88
2023-01-09T03:15:44.749Z,99.00
2023-01-09T03:17:00.404Z,99.17
2023-01-09T03:18:08.961Z,99.04
2023-01-09T03:19:21.165Z,99.28
2023-01-09T03:20:30.267Z,99.04
2023-01-09T03:21:34.996Z,98.93
2023-01-09T03:22:46.451Z,99.06
2023-01-09T03:23:57.490Z,99.39
2023-01-09T03:25:01.070Z,99.31
2023-01-09T03:26:05.442Z,99.56
2023-01-09T03:27:09.984Z,99.71
2023-01-09T03:28:29.686Z,100.00
2023-01-09T03:29:33.513Z,99.98
2023-01-09T03:30:37.880Z,100.00
2023-01-09T03:31:41.659Z,99.85
2023-01-09T03:32:45.783Z,99.85
2023-01-09T03:33:50.034Z,99.57
2023-01-09T03:34:53.986Z,99.18
2023-01-09T03:35:57.747Z,98.93
2023-01-09T03:37:02.056Z,98.86
2023-01-09T03:38:07.312Z,98.44
2023-01-09T03:39:12.149Z,98.76
2023-01-09T03:40:16.676Z,98.25
2023-01-09T03:41:20.642Z,98.38
2023-01-09T03:42:25.920Z,98.96
2023-01-09T03:43:30.728Z,98.87
2023-01-09T03:44:35.589Z,99.02
2023-01-09T03:45:39.691Z,98.66
2023-01-09T03:46:45.071Z,98.94
2023-01-09T03:47:52.291Z,99.01
2023-01-09T03:48:57.103Z,99.22
2023-01-09T03:50:01.335Z,99.11
2023-01-09T03:51:04.933Z,99.06
2023-01-09T03:52:11.522Z,98.99
2023-01-09T03:53:15.812Z,98.88
2023-01-09T03:54:20.179Z,98.47
2023-01-09T03:55:23.953Z,98.52
2023-01-09T03:56:27.647Z,98.73
2023-01-09T03:57:31.591Z,98.61
2023-01-09T03:58:35.471Z,98.60
2023-01-09T03:59:40.267Z,98.59
2023-01-09T04:00:46.227Z,98.41
2023-01-09T04:01:50.510Z,98.02
2023-01-09T04:02:54.870Z,97.95
2023-01-09T04:03:58.777Z,98.13
2023-01-09T04:05:02.889Z,98.31
2023-01-09T04:06:09.798Z,98.21
2023-01-09T04:07:13.894Z,98.59
2023-01-09T04:08:19.847Z,98.17
2023-01-09T04:09:23.512Z,98.05
2023-01-09T04:10:27.313Z,98.07
2023-01-09T04:11:31.810Z,98.09
2023-01-09T04:12:35.675Z,98.04
2023-01-09T04:13:40.048Z,97.99
2023-01-09T04:14:44.158Z,98.52
2023-01-09T04:15:47.937Z,98.25
2023-01-09T04:16:51.602Z,98.51
2023-01-09T04:17:55.531Z,98.42
2023-01-09T04:18:59.538Z,98.33
2023-01-09T04:20:04.795Z,98.52
2023-01-09T04:21:11.912Z,98.41
2023-01-09T04:22:16.948Z,98.05
2023-01-09T04:23:21.341Z,98.23
2023-01-09T04:24:25.357Z,98.51
2023-01-09T04:25:29.993Z,98.25
2023-01-09T04:26:34.008Z,98.47
2023-01-09T04:27:38.147Z,98.39
2023-01-09T04:28:42.243Z,98.65
2023-01-09T04:29:46.375Z,98.76
2023-01-09T04:30:50.708Z,98.93
2023-01-09T04:31:55.707Z,98.86
2023-01-09T04:33:00.172Z,99.24
2023-01-09T04:34:04.157Z,99.38
2023-01-09T04:35:11.627Z,99.47
2023-01-09T04:36:15.988Z,99.67
2023-01-09T04:37:21.121Z,99.64
2023-01-09T04:38:25.024Z,99.56
2023-01-09T04:39:29.101Z,99.41
2023-01-09T04:40:32.921Z,99.56
2023-01-09T04:41:51.963Z,99.66
2023-01-09T04:42:55.858Z,99.35
2023-01-09T04:43:59.953Z,99.67
2023-01-09T04:45:05.642Z,99.91
2023-01-09T04:46:09.683Z,99.99
2023-01-09T04:47:13.866Z,99.57
2023-01-09T04:48:18.963Z,99.62
2023-01-09T04:49:23.682Z,99.50
2023-01-09T04:50:27.389Z,99.54
2023-01-09T04:51:31.571Z,99.27
2023-01-09T04:52:37.038Z,99.46
2023-01-09T04:53:41.958Z,99.46
2023-01-09T04:54:45.935Z,99.50
2023-01-09T04:55:51.174Z,99.64
2023-01-09T04:56:55.193Z,99.32
2023-01-09T04:58:01.605Z,99.58
2023-01-09T04:59:07.820Z,99.61
2023-01-09T05:00:12.514Z,99.54
2023-01-09T05:01:16.469Z,99.48
2023-01-09T05:02:20.471Z,99.47
2023-01-09T05:03:24.253Z,99.67
2023-01-09T05:04:28.223Z,99.63
2023-01-09T05:05:32.116Z,99.83
2023-01-09T05:06:36.272Z,99.93
2023-01-09T05:07:40.728Z,99.54
2023-01-09T05:08:44.842Z,99.97
2023-01-09T05:09:48.971Z,99.62
2023-01-09T05:10:52.601Z,99.77
2023-01-09T05:11:56.792Z,99.75
2023-01-09T05:13:01.229Z,99.70
2023-01-09T05:14:04.809Z,99.77
2023-01-09T05:15:09.923Z,99.43
2023-01-09T05:16:13.939Z,99.76
2023-01-09T05:17:18.036Z,99.99
2023-01-09T05:18:21.763Z,99.80
2023-01-09T05:19:25.768Z,99.83
2023-01-09T05:20:29.807Z,100.00
2023-01-09T05:21:34.499Z,99.68
2023-01-09T05:22:38.497Z,99.83
2023-01-09T05:23:42.272Z,99.78
2023-01-09T05:24:46.233Z,99.96
2023-01-09T05:25:49.827Z,99.94
2023-01-09T05:26:53.949Z,99.95
2023-01-09T05:27:58.247Z,99.68
2023-01-09T05:29:02.082Z,99.99
2023-01-09T05:30:06.906Z,99.84
2023-01-09T05:31:11.139Z,99.71
2023-01-09T05:32:15.825Z,99.47
2023-01-09T05:33:20.078Z,99.41
2023-01-09T05:34:25.333Z,99.76
2023-01-09T05:35:29.530Z,99.48
2023-01-09T05:36:33.853Z,99.68
2023-01-09T05:37:37.666Z,99.45
2023-01-09T05:38:42.343Z,99.89
2023-01-09T05:39:46.142Z,100.00
2023-01-09T05:40:50.148Z,100.00
2023-01-09T05:41:54.283Z,100.00
2023-01-09T05:42:58.479Z,99.93
2023-01-09T05:44:02.735Z,99.97
2023-01-09T05:45:09.753Z,99.93
2023-01-09T05:46:14.571Z,99.67
2023-01-09T05:47:18.498Z,99.63
2023-01-09T05:48:22.276Z,99.87
2023-01-09T05:49:26.236Z,99.65
2023-01-09T05:50:29.948Z,99.61
2023-01-09T05:51:34.376Z,99.83
2023-01-09T05:52:38.653Z,99.65
2023-01-09T05:53:42.237Z,99.58
2023-01-09T05:54:46.967Z,99.80
2023-01-09T05:55:51.280Z,99.91
2023-01-09T05:56:55.022Z,99.88
2023-01-09T05:57:58.656Z,99.89
2023-01-09T05:59:02.486Z,99.82
2023-01-09T06:00:07.107Z,100.00
2023-01-09T06:01:11.222Z,99.75
2023-01-09T06:02:15.085Z,99.94
2023-01-09T06:03:19.497Z,99.89
2023-01-09T06:04:23.212Z,99.84
2023-01-09T06:05:27.275Z,99.90
2023-01-09T06:06:31.117Z,99.73
2023-01-09T06:07:39.450Z,99.37
2023-01-09T06:08:43.318Z,99.60
2023-01-09T06:09:47.796Z,99.59
2023-01-09T06:10:51.687Z,99.85
2023-01-09T06:11:55.685Z,99.75
2023-01-09T06:13:01.990Z,99.49
2023-01-09T06:14:06.813Z,99.78
2023-01-09T06:15:11.418Z,99.78
2023-01-09T06:16:15.378Z,99.59
2023-01-09T06:17:19.365Z,99.28
2023-01-09T06:18:23.224Z,99.48
2023-01-09T06:19:27.017Z,99.38
2023-01-09T06:20:31.534Z,99.74
2023-01-09T06:21:35.355Z,99.78
2023-01-09T06:22:39.209Z,99.68
2023-01-09T06:23:43.962Z,99.49
2023-01-09T06:24:47.715Z,99.22
2023-01-09T06:25:51.285Z,99.36
2023-01-09T06:26:55.065Z,99.17
2023-01-09T06:27:58.943Z,99.65
2023-01-09T06:29:02.657Z,99.40
2023-01-09T06:30:07.756Z,99.53
2023-01-09T06:31:11.677Z,99.63
2023-01-09T06:32:19.419Z,99.87
2023-01-09T06:33:29.437Z,99.68
2023-01-09T06:34:33.229Z,100.00
2023-01-09T06:35:37.096Z,99.78
2023-01-09T06:36:40.887Z,99.83
2023-01-09T06:37:44.950Z,99.95
2023-01-09T06:38:48.957Z,99.80
2023-01-09T06:39:54.501Z,99.88
2023-01-09T06:40:58.189Z,100.00
2023-01-09T06:42:02.047Z,100.00
2023-01-09T06:43:05.863Z,99.97
2023-01-09T06:44:09.507Z,100.00
2023-01-09T06:45:14.889Z,99.85
2023-01-09T06:46:18.876Z,100.00
2023-01-09T06:47:22.789Z,100.00
2023-01-09T06:48:27.013Z,100.00
2023-01-09T06:49:31.123Z,99.69
2023-01-09T06:50:35.193Z,99.84
2023-01-09T06:51:39.210Z,99.80
2023-01-09T06:52:44.964Z,99.86
2023-01-09T06:53:48.928Z,99.76
2023-01-09T06:54:53.781Z,99.66
2023-01-09T06:56:03.176Z,99.54
2023-01-09T06:57:08.321Z,99.60
2023-01-09T06:58:12.938Z,99.90
2023-01-09T06:59:17.750Z,99.79
2023-01-09T07:00:23.116Z,100.00
2023-01-09T07:01:29.019Z,99.99
2023-01-09T07:02:34.143Z,100.00
2023-01-09T07:03:39.465Z,99.78
2023-01-09T07:04:44.344Z,99.84
2023-01-09T07:05:50.433Z,100.00
2023-01-09T07:06:54.733Z,100.00
2023-01-09T07:07:59.084Z,100.00
2023-01-09T07:09:03.254Z,99.76
2023-01-09T07:10:09.726Z,99.94
2023-01-09T07:11:13.749Z,100.00
2023-01-09T07:12:19.189Z,100.00
2023-01-09T07:13:23.578Z,100.00
2023-01-09T07:14:28.074Z,99.98
2023-01-09T07:15:32.261Z,100.00
2023-01-09T07:16:36.223Z,100.00
2023-01-09T07:17:40.035Z,100.00
2023-01-09T07:18:44.013Z,99.88
2023-01-09T07:19:47.719Z,100.00
2023-01-09T07:20:51.954Z,99.97
2023-01-09T07:21:56.163Z,100.00
2023-01-09T07:23:00.255Z,100.00
2023-01-09T07:24:04.070Z,100.00
2023-01-09T07:25:08.175Z,99.83
2023-01-09T07:26:13.865Z,100.00
2023-01-09T07:27:17.870Z,99.70
2023-01-09T07:28:21.607Z,99.38
2023-01-09T07:29:25.561Z,99.36
2023-01-09T07:30:29.357Z,99.22
2023-01-09T07:31:33.734Z,99.36
2023-01-09T07:32:38.710Z,99.46
2023-01-09T07:33:43.201Z,99.11
2023-01-09T07:34:54.328Z,98.97
2023-01-09T07:35:58.113Z,99.22
2023-01-09T07:37:02.019Z,98.96
2023-01-09T07:38:06.016Z,98.69
2023-01-09T07:39:10.132Z,98.94
2023-01-09T07:40:14.327Z,98.82
2023-01-09T07:41:18.590Z,98.72
2023-01-09T07:42:23.313Z,99.04
2023-01-09T07:43:27.610Z,98.79
2023-01-09T07:44:44.413Z,99.06
2023-01-09T07:45:48.444Z,99.30
2023-01-09T07:46:52.389Z,99.47
2023-01-09T07:47:56.392Z,99.21
2023-01-09T07:49:00.513Z,99.21
2023-01-09T07:50:05.481Z,99.19
2023-01-09T07:51:10.602Z,99.05
2023-01-09T07:52:15.041Z,99.29
2023-01-09T07:53:19.167Z,99.33
2023-01-09T07:54:23.080Z,99.15
2023-01-09T07:55:27.154Z,98.81
2023-01-09T07:56:31.284Z,99.05
2023-01-09T07:57:35.438Z,98.71
2023-01-09T07:58:41.099Z,98.90
2023-01-09T07:59:45.638Z,98.83
2023-01-09T08:00:57.294Z,98.73
2023-01-09T08:02:05.772Z,98.54
2023-01-09T08:03:09.458Z,98.40
2023-01-09T08:04:13.590Z,98.61
2023-01-09T08:05:20.218Z,98.68
2023-01-09T08:06:24.915Z,98.47
2023-01-09T08:07:28.751Z,98.54
2023-01-09T08:08:32.604Z,98.29
2023-01-09T08:09:36.796Z,98.27
2023-01-09T08:10:40.840Z,98.23
2023-01-09T08:11:44.705Z,98.29
2023-01-09T08:12:50.076Z,98.32
2023-01-09T08:13:54.195Z,98.32
2023-01-09T08:14:58.052Z,98.43
2023-01-09T08:16:02.126Z,98.35
2023-01-09T08:17:12.151Z,98.32
2023-01-09T08:18:16.167Z,98.25
2023-01-09T08:19:20.385Z,97.94
2023-01-09T08:20:24.331Z,97.70
2023-01-09T08:21:28.161Z,97.92
2023-01-09T08:22:32.207Z,98.04
2023-01-09T08:23:36.116Z,98.18
2023-01-09T08:24:39.768Z,98.12
2023-01-09T08:25:43.440Z,98.33
2023-01-09T08:26:47.177Z,98.25
2023-01-09T08:27:51.278Z,98.08
2023-01-09T08:28:55.960Z,98.08
2023-01-09T08:29:59.790Z,98.49
2023-01-09T08:31:06.559Z,97.94
2023-01-09T08:32:10.482Z,97.92
2023-01-09T08:33:14.887Z,98.27
2023-01-09T08:34:19.819Z,98.05
2023-01-09T08:35:23.706Z,98.24
2023-01-09T08:36:27.868Z,98.22
2023-01-09T08:37:31.778Z,98.79
2023-01-09T08:38:36.319Z,98.93
2023-01-09T08:39:40.588Z,98.80
2023-01-09T08:40:47.422Z,98.59
2023-01-09T08:42:10.021Z,98.97
2023-01-09T08:43:33.059Z,99.02
2023-01-09T08:44:55.736Z,98.63
2023-01-09T08:46:19.753Z,98.77
2023-01-09T08:47:25.018Z,99.12
2023-01-09T08:48:28.826Z,98.95
2023-01-09T08:49:38.880Z,99.25
2023-01-09T08:50:43.862Z,98.93
2023-01-09T08:51:47.872Z,98.96
2023-01-09T08:52:51.955Z,99.06
2023-01-09T08:53:57.415Z,98.98
2023-01-09T08:55:01.460Z,98.91
2023-01-09T08:56:05.948Z,98.96
2023-01-09T08:57:10.148Z,98.59
2023-01-09T08:58:14.413Z,98.97
2023-01-09T08:59:19.937Z,98.74
2023-01-09T09:00:25.898Z,98.64
2023-01-09T09:01:31.566Z,98.84
2023-01-09T09:02:35.661Z,98.97
2023-01-09T09:03:40.983Z,99.05
2023-01-09T09:04:46.567Z,99.40
2023-01-09T09:05:50.911Z,99.53
2023-01-09T09:06:55.585Z,99.25
2023-01-09T09:08:00.273Z,98.86
2023-01-09T09:09:05.290Z,98.63
2023-01-09T09:10:20.428Z,98.48
2023-01-09T09:11:30.654Z,98.40
2023-01-09T09:12:36.039Z,98.48
2023-01-09T09:13:40.069Z,98.29
2023-01-09T09:15:03.641Z,98.15
2023-01-09T09:16:09.086Z,98.01
2023-01-09T09:17:13.055Z,97.57
2023-01-09T09:18:16.827Z,98.42
2023-01-09T09:19:21.617Z,98.46
2023-01-09T09:20:30.420Z,98.05
2023-01-09T09:21:34.038Z,98.09
2023-01-09T09:22:38.126Z,97.72
2023-01-09T09:23:42.148Z,97.48
2023-01-09T09:24:45.861Z,97.56
2023-01-09T09:25:49.676Z,97.15
2023-01-09T09:26:53.662Z,97.05
2023-01-09T09:27:58.526Z,97.05
2023-01-09T09:29:02.589Z,96.74
2023-01-09T09:30:07.982Z,96.98
2023-01-09T09:31:12.553Z,96.79
2023-01-09T09:32:16.453Z,96.45
2023-01-09T09:33:20.394Z,96.01
2023-01-09T09:34:24.143Z,95.36
2023-01-09T09:35:28.987Z,94.55
2023-01-09T09:36:32.771Z,94.39
2023-01-09T09:37:37.512Z,94.08
2023-01-09T09:38:41.742Z,94.06
2023-01-09T09:39:45.737Z,93.71
2023-01-09T09:41:49.315Z,93.58
2023-01-09T09:43:46.065Z,93.56
2023-01-09T09:45:34.657Z,92.91
2023-01-09T09:47:35.238Z,92.94
2023-01-09T09:49:07.222Z,93.47
2023-01-09T09:50:23.882Z,92.94
2023-01-09T09:52:10.552Z,92.58
2023-01-09T09:53:25.909Z,93.15
2023-01-09T09:54:48.221Z,93.01
2023-01-09T09:55:53.178Z,93.07
2023-01-09T09:57:01.119Z,92.96
2023-01-09T09:58:40.263Z,92.50
2023-01-09T09:59:48.439Z,92.79
2023-01-09T10:00:53.831Z,92.69
2023-01-09T10:02:09.864Z,92.46
2023-01-09T10:03:34.093Z,92.32
2023-01-09T10:04:48.029Z,92.31
2023-01-09T10:05:54.773Z,92.32
2023-01-09T10:07:09.864Z,92.37
2023-01-09T10:08:43.777Z,92.31
2023-01-09T10:10:02.728Z,92.47
2023-01-09T10:11:22.878Z,92.56
2023-01-09T10:12:44.012Z,92.14
2023-01-09T10:14:13.236Z,92.31
2023-01-09T10:15:59.673Z,92.01
2023-01-09T10:17:15.373Z,91.84
2023-01-09T10:18:58.805Z,91.92
2023-01-09T10:20:50.261Z,92.01
2023-01-09T10:22:20.891Z,92.03
2023-01-09T10:23:58.468Z,92.04
2023-01-09T10:25:24.070Z,91.97
2023-01-09T10:26:43.761Z,92.16
2023-01-09T10:28:00.146Z,91.76
2023-01-09T10:29:14.203Z,91.81
2023-01-09T10:30:45.537Z,91.85
2023-01-09T10:32:39.858Z,91.60
2023-01-09T10:34:47.245Z,91.81
2023-01-09T10:36:09.891Z,91.89
2023-01-09T10:37:53.371Z,91.21
2023-01-09T10:39:04.423Z,91.47
2023-01-09T10:40:39.948Z,91.64
2023-01-09T10:42:13.132Z,91.48
2023-01-09T10:43:59.401Z,90.98
2023-01-09T10:45:16.067Z,91.46
2023-01-09T10:46:43.995Z,91.19
2023-01-09T10:47:49.937Z,91.04
2023-01-09T10:49:03.083Z,91.11
2023-01-09T10:50:34.586Z,91.21
2023-01-09T10:51:53.372Z,91.15
2023-01-09T10:52:58.441Z,91.08
2023-01-09T10:54:04.608Z,91.18
2023-01-09T10:55:17.975Z,90.73
2023-01-09T10:56:27.208Z,91.00
2023-01-09T10:57:54.361Z,90.67
2023-01-09T10:58:58.881Z,90.97
2023-01-09T11:00:05.583Z,90.72
2023-01-09T11:01:10.381Z,90.57
2023-01-09T11:02:43.770Z,90.51
2023-01-09T11:03:48.574Z,90.38
2023-01-09T11:04:53.054Z,90.31
2023-01-09T11:06:02.484Z,90.01
2023-01-09T11:07:29.246Z,89.66
2023-01-09T11:08:44.921Z,89.22
2023-01-09T11:10:07.528Z,89.02
2023-01-09T11:11:13.027Z,89.01
2023-01-09T11:12:34.120Z,88.48
2023-01-09T11:13:43.760Z,88.39
2023-01-09T11:14:48.119Z,88.32
2023-01-09T11:16:09.702Z,87.77
2023-01-09T11:17:27.080Z,87.46
2023-01-09T11:18:34.311Z,87.94
2023-01-09T11:19:38.703Z,86.97
2023-01-09T11:20:43.071Z,86.96
2023-01-09T11:21:47.259Z,86.65
2023-01-09T11:22:57.853Z,86.26
2023-01-09T11:24:22.311Z,86.14
2023-01-09T11:25:29.050Z,86.01
2023-01-09T11:26:35.201Z,86.17
2023-01-09T11:27:39.313Z,85.83
2023-01-09T11:28:43.261Z,85.68
2023-01-09T11:30:43.748Z,85.34
2023-01-09T11:32:00.071Z,85.01
2023-01-09T11:33:28.735Z,84.56
2023-01-09T11:34:37.504Z,84.72
2023-01-09T11:36:08.019Z,84.48
2023-01-09T11:37:20.145Z,84.45
2023-01-09T11:38:24.637Z,83.99
2023-01-09T11:39:33.624Z,84.48
2023-01-09T11:41:16.458Z,84.19
2023-01-09T11:42:45.353Z,83.98
2023-01-09T11:43:54.670Z,83.82
2023-01-09T11:45:01.720Z,84.02
2023-01-09T11:46:11.792Z,83.59
2023-01-09T11:47:39.669Z,83.73
2023-01-09T11:48:59.590Z,83.74
2023-01-09T11:50:23.345Z,83.24
2023-01-09T11:51:34.367Z,83.11
2023-01-09T11:52:38.182Z,83.11
2023-01-09T11:54:20.363Z,82.92
2023-01-09T11:55:29.347Z,83.09
2023-01-09T11:56:37.960Z,82.90
2023-01-09T11:57:42.096Z,83.00
2023-01-09T11:58:47.617Z,82.72
2023-01-09T11:59:54.501Z,82.43
2023-01-09T12:01:18.727Z,82.06
2023-01-09T12:02:56.532Z,81.84
2023-01-09T12:04:32.392Z,81.16
2023-01-09T12:05:58.286Z,80.97
2023-01-09T12:07:38.728Z,81.19
2023-01-09T12:09:07.103Z,81.11
2023-01-09T12:11:32.492Z,80.72
2023-01-09T12:14:02.440Z,80.53
2023-01-09T12:15:38.840Z,80.54
2023-01-09T12:17:11.773Z,80.83
2023-01-09T12:18:58.124Z,80.59
2023-01-09T12:20:38.671Z,81.04
2023-01-09T12:21:50.215Z,81.79
2023-01-09T12:23:32.368Z,82.20
2023-01-09T12:25:16.121Z,82.57
2023-01-09T12:26:36.743Z,83.17
2023-01-09T12:28:11.117Z,83.35
2023-01-09T12:30:30.689Z,83.05
2023-01-09T12:32:12.948Z,83.50
2023-01-09T12:33:53.207Z,84.22
2023-01-09T12:35:10.880Z,84.39
2023-01-09T12:36:41.878Z,84.40
2023-01-09T12:43:12.889Z,84.96
2023-01-09T12:44:51.717Z,85.03
2023-01-09T12:46:30.709Z,84.92
2023-01-09T12:47:46.198Z,84.76
2023-01-09T12:49:30.014Z,84.56
2023-01-09T12:51:11.531Z,84.60
2023-01-09T12:52:31.389Z,84.94
2023-01-09T12:53:55.656Z,84.90
2023-01-09T12:55:19.505Z,84.98
2023-01-09T12:56:37.418Z,85.14
2023-01-09T12:57:49.693Z,85.11
2023-01-09T12:59:17.206Z,85.07
2023-01-09T13:00:43.611Z,85.24
2023-01-09T13:01:50.423Z,85.22
2023-01-09T13:03:20.483Z,85.17
2023-01-09T13:04:36.793Z,85.02
2023-01-09T13:05:57.707Z,84.91
2023-01-09T13:07:19.055Z,85.23
2023-01-09T13:08:52.882Z,85.07
2023-01-09T13:10:22.996Z,85.02
2023-01-09T13:11:41.279Z,85.17
2023-01-09T13:12:48.623Z,85.33
2023-01-09T13:14:14.224Z,85.32
2023-01-09T13:15:39.977Z,85.51
2023-01-09T13:16:59.527Z,85.64
2023-01-09T13:18:37.138Z,85.76
2023-01-09T13:19:51.014Z,85.71
2023-01-09T13:21:02.338Z,85.99
2023-01-09T13:22:14.755Z,85.95
2023-01-09T13:23:41.975Z,85.75
2023-01-09T13:25:19.831Z,86.11
2023-01-09T13:26:29.987Z,86.24
2023-01-09T13:27:41.190Z,85.99
2023-01-09T13:28:54.813Z,86.40
2023-01-09T13:30:19.877Z,86.44
2023-01-09T13:32:00.428Z,86.56
2023-01-09T13:33:38.811Z,86.92
2023-01-09T13:34:48.258Z,87.21
2023-01-09T13:36:10.053Z,87.43
2023-01-09T13:37:39.782Z,87.28
2023-01-09T13:38:50.086Z,87.63
2023-01-09T13:40:08.046Z,87.56
2023-01-09T13:41:38.700Z,87.81
2023-01-09T13:42:49.080Z,87.53
2023-01-09T13:44:02.445Z,87.90
2023-01-09T13:45:25.459Z,87.52
2023-01-09T13:46:59.462Z,87.87
2023-01-09T13:48:18.465Z,87.68
2023-01-09T13:50:01.442Z,87.99
2023-01-09T13:51:43.107Z,87.70
2023-01-09T13:52:49.729Z,87.97
2023-01-09T13:53:53.901Z,87.78
2023-01-09T13:55:02.827Z,87.86
2023-01-09T13:56:11.639Z,87.97
2023-01-09T13:57:18.221Z,87.88
2023-01-09T13:58:30.095Z,87.92
2023-01-09T13:59:34.110Z,88.20
2023-01-09T14:00:38.698Z,88.15
2023-01-09T14:01:44.390Z,87.97
2023-01-09T14:02:49.596Z,87.98
2023-01-09T14:04:22.959Z,88.38
2023-01-09T14:05:46.980Z,88.29
2023-01-09T14:07:23.900Z,88.18
2023-01-09T14:08:31.596Z,88.47
2023-01-09T14:09:38.822Z,88.19
2023-01-09T14:10:52.526Z,88.31
2023-01-09T14:12:07.357Z,88.54
2023-01-09T14:13:19.738Z,88.62
2023-01-09T14:14:34.160Z,88.58
2023-01-09T14:15:45.990Z,88.85
2023-01-09T14:16:50.882Z,88.85
2023-01-09T14:18:07.080Z,88.60
2023-01-09T14:19:40.100Z,88.88
2023-01-09T14:21:01.571Z,88.96
2023-01-09T14:22:08.233Z,89.10
2023-01-09T14:23:50.344Z,88.94
2023-01-09T14:25:01.926Z,89.30
2023-01-09T14:26:06.813Z,89.30
2023-01-09T14:27:54.944Z,89.28
2023-01-09T14:29:32.838Z,89.64
2023-01-09T14:30:59.511Z,89.34
2023-01-09T14:32:26.644Z,89.49
2023-01-09T14:33:32.782Z,89.56
2023-01-09T14:34:41.187Z,89.49
2023-01-09T14:36:27.400Z,89.67
2023-01-09T14:37:37.884Z,89.59
2023-01-09T14:38:49.552Z,89.73
2023-01-09T14:39:54.151Z,89.53
2023-01-09T14:41:42.375Z,89.61
2023-01-09T14:42:52.238Z,89.72
2023-01-09T14:44:11.280Z,89.83
2023-01-09T14:45:22.633Z,89.91
2023-01-09T14:46:38.178Z,90.03
2023-01-09T14:47:48.974Z,90.12
2023-01-09T14:49:19.395Z,89.85
2023-01-09T14:50:45.834Z,90.53
2023-01-09T14:51:52.085Z,90.43
2023-01-09T14:53:22.807Z,90.75
2023-01-09T14:54:38.147Z,90.80
2023-01-09T14:55:58.143Z,91.25
2023-01-09T14:57:02.796Z,91.24
2023-01-09T14:58:24.539Z,91.14
2023-01-09T14:59:30.095Z,91.29
2023-01-09T15:00:36.988Z,91.43
2023-01-09T15:01:47.564Z,91.35
2023-01-09T15:02:54.711Z,91.41
2023-01-09T15:04:06.240Z,91.42
2023-01-09T15:05:17.523Z,92.02
2023-01-09T15:06:31.266Z,92.51
2023-01-09T15:07:44.950Z,92.61
2023-01-09T15:08:58.657Z,93.34
2023-01-09T15:10:04.895Z,92.88
2023-01-09T15:11:14.397Z,92.93
2023-01-09T15:12:25.035Z,92.47
2023-01-09T15:13:35.980Z,92.39
2023-01-09T15:14:45.969Z,92.43
2023-01-09T15:15:51.105Z,92.17
2023-01-09T15:16:55.524Z,92.17
2023-01-09T15:18:08.504Z,92.19
2023-01-09T15:19:15.893Z,91.72
2023-01-09T15:20:27.482Z,91.83
2023-01-09T15:21:32.823Z,92.02
2023-01-09T15:22:38.401Z,91.97
2023-01-09T15:23:42.358Z,92.12
2023-01-09T15:24:46.380Z,92.41
2023-01-09T15:25:50.219Z,92.67
2023-01-09T15:26:58.973Z,92.78
2023-01-09T15:28:33.970Z,92.58
2023-01-09T15:29:38.116Z,92.99
2023-01-09T15:30:43.852Z,93.32
2023-01-09T15:32:01.852Z,93.22
2023-01-09T15:33:24.480Z,93.14
2023-01-09T15:34:30.265Z,93.39
2023-01-09T15:35:34.058Z,93.27
2023-01-09T15:36:38.682Z,93.35
2023-01-09T15:37:43.738Z,93.05
2023-01-09T15:38:50.714Z,92.90